Main page
METAR-TAF:

Airports :

London-Luton, England

Luton Airport

latitude: 51-52N, longitude: 000-22W, elevation: 160 m

Current weather observation

The report was made 42 minutes ago, at 04:50 UTC
Wind 2 kt from variable directions
Temperature 11°C
Humidity 100%
Pressure 1022 hPa
Visibility 10 km or more
Scattered clouds at a height of 4500 ft

METAR: EGGW 010450Z AUTO VRB02KT 9999 SCT045 11/11 Q1022

Time: 06:32 (05:32 UTC)

Forecast

The report was made 6 hours and 35 minutes ago, at 22:57 UTC
Forecast valid from 01 at 00 UTC to 01 at 24 UTC
Wind 6 kt from the West
Visibility 10 km or more
Scattered clouds at a height of 4500 ft
Probability 30%
from 01 at 05 UTC to 01 at 08 UTC
Visibility: 8000 m
Probability 30% :
Temporary
from 01 at 07 UTC to 01 at 09 UTC
Broken clouds at a height of 1200 ft

TAF: EGGW 312257Z 0100/0124 28006KT 9999 SCT045 PROB30 0105/0108 8000 PROB30 TEMPO 0107/0109 BKN012

METAR-TAF

Weather observations and forecasts of more than 4000 airports (METAR and TAF reports).

The available stations are represented by yellow and red dots on the map.

Hover mouse over dot to see the name of the station.

Then click to see weather observations and forecasts.

To change the map : click on the green buttons with a black cross to zoom in, on the green button with a dash to zoom out, or on the green arrows for adjacent maps.


METAR-TAF: